Airfield :
LOGIN :

Register | Disclaimer

   EN    FR    IT 

 










Legend :    VFR   Marginal VFR   IFR   Intensive IFR   Very Intensive IFR
Visi :
Ceiling :
>= 8 km
>= 3000ft
5 to 8 km
1000 to 3000 ft
1500m to 5 km
500 to 1000 ft
800 to 1500m
200 to 500 ft
< 800m
< 200 ft
Symbols :   Thunderstorms  Fog  Heavy snow  Heavy precipitations  Wind > 20 kt
SIGMETs :     Misc.  Thunderstorms  Icing  Turbulence  Mountain Waves  Volcanic Ashes







- Airport Elevation : 162 ft
- IATA code : BOD
- Download approach charts


LFBD - Bordeaux / Merignac

CURRENT METAR :
  • 171330Z AUTO 11007KT CAVOK 17/07 Q1020 NOSIG

EXPIRED METARs :
  • 171300Z AUTO 10007KT 080V140 CAVOK 16/07 Q1021 NOSIG
  • 171230Z AUTO 11007KT 060V140 CAVOK 16/07 Q1021 NOSIG
  • 171200Z AUTO 11008KT CAVOK 15/07 Q1021 NOSIG
  • 171130Z AUTO 11007KT CAVOK 14/07 Q1022 NOSIG
  • 171100Z AUTO 12007KT CAVOK 13/06 Q1022 NOSIG

TAF TAF LFBD
Valid from the 17 at 12:00 until the 18 at 18:00 UTC


171100Z 1712/1818 13008KT CAVOK TX18/1714Z TN05/1806Z
ATIS : +33 5 57 92 81 04
No reported NOTAMs for that airfield.



MET'MAP, your aeronautical weather chart ! - Copyright ORBIFLY December 2007 - Disclaimer

ORBIFLY MET'MAP TEAM :

Programming & Development : Alexandra Zaïnal
Concept & Development : Baudouin d'Aumeries
Co-Development & Prog : Marc-Olivier Méhu
Technical & hardware support : Manuel Goepfert

Contact : metmap@orbifly.com




SOURCES & CREDITS :

   NOAA